sensor_id;sensor_type;location;lat;lon;timestamp;P1;durP1;ratioP1;P2;durP2;ratioP2
63032;SDS011;49121;38.932;-9.018;2023-02-28T00:00:21;10.07;;;3.17;;
63032;SDS011;49121;38.932;-9.018;2023-02-28T00:02:22;5.25;;;2.78;;
63032;SDS011;49121;38.932;-9.018;2023-02-28T00:04:22;9.48;;;3.13;;
63032;SDS011;49121;38.932;-9.018;2023-02-28T00:06:23;8.73;;;3.08;;
63032;SDS011;49121;38.932;-9.018;2023-02-28T00:08:24;6.63;;;2.78;;
63032;SDS011;49121;38.932;-9.018;2023-02-28T00:10:26;8.30;;;2.58;;
63032;SDS011;49121;38.932;-9.018;2023-02-28T00:12:28;8.88;;;2.42;;
63032;SDS011;49121;38.932;-9.018;2023-02-28T00:14:29;9.93;;;2.45;;
63032;SDS011;49121;38.932;-9.018;2023-02-28T00:16:30;9.73;;;2.40;;
63032;SDS011;49121;38.932;-9.018;2023-02-28T00:18:31;12.52;;;3.17;;
63032;SDS011;49121;38.932;-9.018;2023-02-28T00:20:31;6.07;;;2.20;;
63032;SDS011;49121;38.932;-9.018;2023-02-28T00:22:32;10.45;;;2.88;;
63032;SDS011;49121;38.932;-9.018;2023-02-28T00:24:33;8.00;;;2.38;;
63032;SDS011;49121;38.932;-9.018;2023-02-28T00:26:33;15.23;;;2.90;;
63032;SDS011;49121;38.932;-9.018;2023-02-28T00:30:34;9.43;;;2.60;;
63032;SDS011;49121;38.932;-9.018;2023-02-28T00:32:38;6.35;;;2.50;;
63032;SDS011;49121;38.932;-9.018;2023-02-28T00:34:40;12.05;;;3.30;;
63032;SDS011;49121;38.932;-9.018;2023-02-28T00:36:42;11.77;;;3.03;;
63032;SDS011;49121;38.932;-9.018;2023-02-28T00:38:45;7.53;;;2.42;;
63032;SDS011;49121;38.932;-9.018;2023-02-28T00:40:46;8.02;;;2.63;;
63032;SDS011;49121;38.932;-9.018;2023-02-28T00:42:46;7.13;;;2.65;;
63032;SDS011;49121;38.932;-9.018;2023-02-28T00:44:47;8.93;;;2.92;;
63032;SDS011;49121;38.932;-9.018;2023-02-28T00:46:48;12.05;;;2.33;;
63032;SDS011;49121;38.932;-9.018;2023-02-28T00:48:48;11.93;;;3.22;;
63032;SDS011;49121;38.932;-9.018;2023-02-28T00:50:49;7.88;;;3.42;;
63032;SDS011;49121;38.932;-9.018;2023-02-28T00:52:53;14.85;;;3.08;;
63032;SDS011;49121;38.932;-9.018;2023-02-28T00:54:57;9.38;;;3.30;;
63032;SDS011;49121;38.932;-9.018;2023-02-28T00:56:58;9.07;;;3.67;;
63032;SDS011;49121;38.932;-9.018;2023-02-28T01:00:59;3.70;;;2.47;;
63032;SDS011;49121;38.932;-9.018;2023-02-28T01:03:00;10.23;;;3.95;;
63032;SDS011;49121;38.932;-9.018;2023-02-28T01:05:01;9.88;;;4.00;;
63032;SDS011;49121;38.932;-9.018;2023-02-28T01:07:03;9.75;;;3.88;;
63032;SDS011;49121;38.932;-9.018;2023-02-28T01:09:04;9.57;;;3.53;;
63032;SDS011;49121;38.932;-9.018;2023-02-28T01:11:07;5.28;;;2.80;;
63032;SDS011;49121;38.932;-9.018;2023-02-28T01:13:09;8.88;;;3.15;;
63032;SDS011;49121;38.932;-9.018;2023-02-28T01:15:13;8.25;;;3.35;;
63032;SDS011;49121;38.932;-9.018;2023-02-28T01:17:14;9.43;;;3.05;;
63032;SDS011;49121;38.932;-9.018;2023-02-28T01:19:15;14.23;;;4.45;;
63032;SDS011;49121;38.932;-9.018;2023-02-28T01:21:17;13.30;;;5.35;;
63032;SDS011;49121;38.932;-9.018;2023-02-28T01:23:19;7.45;;;3.17;;
63032;SDS011;49121;38.932;-9.018;2023-02-28T01:25:23;6.82;;;2.47;;
63032;SDS011;49121;38.932;-9.018;2023-02-28T01:27:23;5.85;;;3.30;;
63032;SDS011;49121;38.932;-9.018;2023-02-28T01:29:26;6.82;;;3.20;;
63032;SDS011;49121;38.932;-9.018;2023-02-28T01:31:27;15.50;;;4.78;;
63032;SDS011;49121;38.932;-9.018;2023-02-28T01:33:31;13.20;;;4.32;;
63032;SDS011;49121;38.932;-9.018;2023-02-28T01:35:34;9.93;;;2.97;;
63032;SDS011;49121;38.932;-9.018;2023-02-28T01:37:47;6.50;;;3.10;;
63032;SDS011;49121;38.932;-9.018;2023-02-28T01:39:48;8.32;;;3.03;;
63032;SDS011;49121;38.932;-9.018;2023-02-28T01:41:49;6.93;;;2.83;;
63032;SDS011;49121;38.932;-9.018;2023-02-28T01:45:50;12.55;;;5.00;;
63032;SDS011;49121;38.932;-9.018;2023-02-28T01:47:58;13.27;;;3.90;;
63032;SDS011;49121;38.932;-9.018;2023-02-28T01:50:04;6.82;;;3.40;;
63032;SDS011;49121;38.932;-9.018;2023-02-28T01:52:11;5.97;;;3.28;;
63032;SDS011;49121;38.932;-9.018;2023-02-28T01:54:22;7.25;;;3.03;;
63032;SDS011;49121;38.932;-9.018;2023-02-28T01:56:27;23.52;;;5.30;;
63032;SDS011;49121;38.932;-9.018;2023-02-28T01:58:33;8.10;;;3.10;;
63032;SDS011;49121;38.932;-9.018;2023-02-28T02:00:35;7.32;;;3.25;;
63032;SDS011;49121;38.932;-9.018;2023-02-28T02:02:36;8.80;;;3.45;;
63032;SDS011;49121;38.932;-9.018;2023-02-28T02:04:39;13.15;;;3.10;;
63032;SDS011;49121;38.932;-9.018;2023-02-28T02:06:46;9.43;;;3.55;;
63032;SDS011;49121;38.932;-9.018;2023-02-28T02:08:48;8.90;;;4.28;;
63032;SDS011;49121;38.932;-9.018;2023-02-28T02:10:50;10.82;;;4.40;;
63032;SDS011;49121;38.932;-9.018;2023-02-28T02:15:16;6.55;;;3.63;;
63032;SDS011;49121;38.932;-9.018;2023-02-28T02:17:32;7.18;;;3.97;;
63032;SDS011;49121;38.932;-9.018;2023-02-28T02:36:30;8.18;;;3.30;;
63032;SDS011;49121;38.932;-9.018;2023-02-28T02:38:38;8.27;;;4.07;;
63032;SDS011;49121;38.932;-9.018;2023-02-28T02:43:33;7.72;;;3.60;;
63032;SDS011;49121;38.932;-9.018;2023-02-28T02:45:45;9.38;;;3.97;;
63032;SDS011;49121;38.932;-9.018;2023-02-28T02:47:56;7.28;;;3.90;;
63032;SDS011;49121;38.932;-9.018;2023-02-28T02:50:01;9.73;;;3.83;;
63032;SDS011;49121;38.932;-9.018;2023-02-28T02:52:08;12.88;;;4.00;;
63032;SDS011;49121;38.932;-9.018;2023-02-28T02:54:15;5.80;;;3.08;;
63032;SDS011;49121;38.932;-9.018;2023-02-28T02:56:23;7.22;;;3.50;;
63032;SDS011;49121;38.932;-9.018;2023-02-28T02:58:28;9.40;;;3.83;;
63032;SDS011;49121;38.932;-9.018;2023-02-28T03:00:33;8.02;;;3.38;;
63032;SDS011;49121;38.932;-9.018;2023-02-28T03:02:44;8.20;;;3.45;;
63032;SDS011;49121;38.932;-9.018;2023-02-28T03:04:58;7.13;;;3.53;;
63032;SDS011;49121;38.932;-9.018;2023-02-28T03:07:01;9.73;;;4.13;;
63032;SDS011;49121;38.932;-9.018;2023-02-28T03:09:02;12.57;;;3.60;;
63032;SDS011;49121;38.932;-9.018;2023-02-28T03:11:11;12.38;;;3.58;;
63032;SDS011;49121;38.932;-9.018;2023-02-28T03:18:24;8.52;;;3.92;;
63032;SDS011;49121;38.932;-9.018;2023-02-28T03:20:37;6.93;;;3.90;;
63032;SDS011;49121;38.932;-9.018;2023-02-28T03:25:43;6.80;;;3.33;;
63032;SDS011;49121;38.932;-9.018;2023-02-28T03:28:07;7.85;;;3.67;;
63032;SDS011;49121;38.932;-9.018;2023-02-28T03:32:38;9.85;;;3.22;;
63032;SDS011;49121;38.932;-9.018;2023-02-28T03:34:42;9.23;;;3.70;;
63032;SDS011;49121;38.932;-9.018;2023-02-28T03:36:50;8.10;;;3.38;;
63032;SDS011;49121;38.932;-9.018;2023-02-28T03:39:04;8.80;;;3.20;;
63032;SDS011;49121;38.932;-9.018;2023-02-28T03:43:17;6.32;;;3.42;;
63032;SDS011;49121;38.932;-9.018;2023-02-28T03:45:24;9.90;;;3.80;;
63032;SDS011;49121;38.932;-9.018;2023-02-28T03:47:42;8.43;;;3.70;;
63032;SDS011;49121;38.932;-9.018;2023-02-28T03:52:13;7.72;;;3.65;;
63032;SDS011;49121;38.932;-9.018;2023-02-28T03:54:19;11.60;;;4.10;;
63032;SDS011;49121;38.932;-9.018;2023-02-28T03:56:27;9.45;;;3.65;;
63032;SDS011;49121;38.932;-9.018;2023-02-28T04:01:19;11.73;;;3.75;;
63032;SDS011;49121;38.932;-9.018;2023-02-28T04:03:19;11.57;;;3.90;;
63032;SDS011;49121;38.932;-9.018;2023-02-28T04:05:20;8.43;;;3.95;;
63032;SDS011;49121;38.932;-9.018;2023-02-28T04:07:21;7.78;;;3.38;;
63032;SDS011;49121;38.932;-9.018;2023-02-28T04:09:22;8.75;;;3.80;;
63032;SDS011;49121;38.932;-9.018;2023-02-28T04:11:27;12.73;;;3.97;;
63032;SDS011;49121;38.932;-9.018;2023-02-28T04:13:32;10.00;;;3.90;;
63032;SDS011;49121;38.932;-9.018;2023-02-28T04:15:32;6.60;;;3.90;;
63032;SDS011;49121;38.932;-9.018;2023-02-28T04:17:33;14.73;;;4.65;;
63032;SDS011;49121;38.932;-9.018;2023-02-28T04:19:34;9.52;;;4.82;;
63032;SDS011;49121;38.932;-9.018;2023-02-28T04:21:35;8.57;;;3.83;;
63032;SDS011;49121;38.932;-9.018;2023-02-28T04:23:40;7.95;;;3.97;;
63032;SDS011;49121;38.932;-9.018;2023-02-28T04:25:40;12.63;;;4.15;;
63032;SDS011;49121;38.932;-9.018;2023-02-28T04:27:41;10.40;;;3.80;;
63032;SDS011;49121;38.932;-9.018;2023-02-28T04:29:44;5.65;;;3.35;;
63032;SDS011;49121;38.932;-9.018;2023-02-28T04:31:45;6.10;;;3.47;;
63032;SDS011;49121;38.932;-9.018;2023-02-28T04:33:46;6.47;;;3.72;;
63032;SDS011;49121;38.932;-9.018;2023-02-28T04:35:46;5.88;;;3.72;;
63032;SDS011;49121;38.932;-9.018;2023-02-28T04:37:47;6.07;;;3.63;;
63032;SDS011;49121;38.932;-9.018;2023-02-28T04:39:48;9.65;;;4.88;;
63032;SDS011;49121;38.932;-9.018;2023-02-28T04:41:48;4.05;;;3.08;;
63032;SDS011;49121;38.932;-9.018;2023-02-28T04:43:51;7.75;;;4.18;;
63032;SDS011;49121;38.932;-9.018;2023-02-28T04:45:53;11.27;;;3.95;;
63032;SDS011;49121;38.932;-9.018;2023-02-28T04:47:58;7.32;;;3.67;;
63032;SDS011;49121;38.932;-9.018;2023-02-28T04:49:58;9.95;;;3.75;;
63032;SDS011;49121;38.932;-9.018;2023-02-28T04:51:59;8.00;;;3.95;;
63032;SDS011;49121;38.932;-9.018;2023-02-28T04:53:59;10.88;;;4.40;;
63032;SDS011;49121;38.932;-9.018;2023-02-28T04:56:00;10.85;;;3.95;;
63032;SDS011;49121;38.932;-9.018;2023-02-28T04:58:01;10.13;;;3.63;;
63032;SDS011;49121;38.932;-9.018;2023-02-28T05:00:02;7.53;;;3.80;;
63032;SDS011;49121;38.932;-9.018;2023-02-28T05:02:15;13.25;;;4.03;;
63032;SDS011;49121;38.932;-9.018;2023-02-28T05:04:16;6.18;;;4.10;;
63032;SDS011;49121;38.932;-9.018;2023-02-28T05:08:18;9.88;;;4.05;;
63032;SDS011;49121;38.932;-9.018;2023-02-28T05:10:18;9.65;;;4.47;;
63032;SDS011;49121;38.932;-9.018;2023-02-28T05:12:19;9.25;;;3.70;;
63032;SDS011;49121;38.932;-9.018;2023-02-28T05:14:20;12.88;;;4.53;;
63032;SDS011;49121;38.932;-9.018;2023-02-28T05:16:21;12.13;;;4.78;;
63032;SDS011;49121;38.932;-9.018;2023-02-28T05:18:22;7.82;;;3.95;;
63032;SDS011;49121;38.932;-9.018;2023-02-28T05:20:22;10.82;;;4.18;;
63032;SDS011;49121;38.932;-9.018;2023-02-28T05:22:23;10.02;;;4.47;;
63032;SDS011;49121;38.932;-9.018;2023-02-28T05:24:24;11.60;;;3.92;;
63032;SDS011;49121;38.932;-9.018;2023-02-28T05:26:25;7.68;;;4.30;;
63032;SDS011;49121;38.932;-9.018;2023-02-28T05:28:26;17.75;;;4.18;;
63032;SDS011;49121;38.932;-9.018;2023-02-28T05:30:27;8.95;;;3.33;;
63032;SDS011;49121;38.932;-9.018;2023-02-28T05:32:28;6.30;;;3.17;;
63032;SDS011;49121;38.932;-9.018;2023-02-28T05:34:28;14.52;;;3.70;;
63032;SDS011;49121;38.932;-9.018;2023-02-28T05:36:29;5.65;;;3.33;;
63032;SDS011;49121;38.932;-9.018;2023-02-28T05:38:30;6.70;;;3.53;;
63032;SDS011;49121;38.932;-9.018;2023-02-28T05:40:30;8.73;;;3.70;;
63032;SDS011;49121;38.932;-9.018;2023-02-28T05:42:31;9.18;;;3.67;;
63032;SDS011;49121;38.932;-9.018;2023-02-28T05:46:32;6.43;;;3.60;;
63032;SDS011;49121;38.932;-9.018;2023-02-28T05:48:34;9.55;;;3.25;;
63032;SDS011;49121;38.932;-9.018;2023-02-28T05:50:35;6.63;;;3.33;;
63032;SDS011;49121;38.932;-9.018;2023-02-28T05:52:36;9.10;;;2.78;;
63032;SDS011;49121;38.932;-9.018;2023-02-28T05:54:37;6.20;;;3.15;;
63032;SDS011;49121;38.932;-9.018;2023-02-28T05:56:38;11.55;;;3.83;;
63032;SDS011;49121;38.932;-9.018;2023-02-28T05:58:40;6.13;;;3.58;;
63032;SDS011;49121;38.932;-9.018;2023-02-28T06:00:40;6.38;;;3.72;;
63032;SDS011;49121;38.932;-9.018;2023-02-28T06:02:41;5.53;;;3.63;;
63032;SDS011;49121;38.932;-9.018;2023-02-28T06:04:42;5.65;;;2.75;;
63032;SDS011;49121;38.932;-9.018;2023-02-28T06:07:20;5.88;;;2.80;;
63032;SDS011;49121;38.932;-9.018;2023-02-28T06:09:58;5.80;;;3.45;;
63032;SDS011;49121;38.932;-9.018;2023-02-28T06:11:59;6.68;;;3.47;;
63032;SDS011;49121;38.932;-9.018;2023-02-28T06:14:00;7.72;;;3.45;;
63032;SDS011;49121;38.932;-9.018;2023-02-28T06:16:01;4.95;;;2.95;;
63032;SDS011;49121;38.932;-9.018;2023-02-28T06:18:02;6.47;;;2.97;;
63032;SDS011;49121;38.932;-9.018;2023-02-28T06:20:03;8.18;;;3.47;;
63032;SDS011;49121;38.932;-9.018;2023-02-28T06:22:05;8.32;;;3.50;;
63032;SDS011;49121;38.932;-9.018;2023-02-28T06:24:06;6.93;;;2.75;;
63032;SDS011;49121;38.932;-9.018;2023-02-28T06:26:07;7.93;;;3.60;;
63032;SDS011;49121;38.932;-9.018;2023-02-28T06:28:07;15.57;;;5.32;;
63032;SDS011;49121;38.932;-9.018;2023-02-28T06:30:10;7.72;;;3.35;;
63032;SDS011;49121;38.932;-9.018;2023-02-28T06:32:11;8.13;;;4.03;;
63032;SDS011;49121;38.932;-9.018;2023-02-28T06:34:12;6.65;;;2.97;;
63032;SDS011;49121;38.932;-9.018;2023-02-28T06:36:14;8.30;;;3.15;;
63032;SDS011;49121;38.932;-9.018;2023-02-28T06:38:16;7.38;;;3.13;;
63032;SDS011;49121;38.932;-9.018;2023-02-28T06:40:16;6.60;;;2.92;;
63032;SDS011;49121;38.932;-9.018;2023-02-28T06:42:21;7.15;;;3.75;;
63032;SDS011;49121;38.932;-9.018;2023-02-28T06:44:24;6.40;;;2.90;;
63032;SDS011;49121;38.932;-9.018;2023-02-28T06:46:25;10.32;;;3.50;;
63032;SDS011;49121;38.932;-9.018;2023-02-28T06:48:26;6.47;;;3.47;;
63032;SDS011;49121;38.932;-9.018;2023-02-28T06:50:27;6.78;;;3.05;;
63032;SDS011;49121;38.932;-9.018;2023-02-28T06:52:29;6.97;;;3.60;;
63032;SDS011;49121;38.932;-9.018;2023-02-28T06:54:30;7.63;;;3.30;;
63032;SDS011;49121;38.932;-9.018;2023-02-28T06:56:30;7.47;;;3.30;;
63032;SDS011;49121;38.932;-9.018;2023-02-28T06:58:31;7.60;;;2.97;;
63032;SDS011;49121;38.932;-9.018;2023-02-28T07:00:32;5.53;;;3.00;;
63032;SDS011;49121;38.932;-9.018;2023-02-28T07:02:33;4.90;;;2.60;;
63032;SDS011;49121;38.932;-9.018;2023-02-28T07:04:35;5.72;;;2.67;;
63032;SDS011;49121;38.932;-9.018;2023-02-28T07:06:36;6.82;;;2.65;;
63032;SDS011;49121;38.932;-9.018;2023-02-28T07:08:37;9.73;;;3.17;;
63032;SDS011;49121;38.932;-9.018;2023-02-28T07:10:59;7.43;;;2.90;;
63032;SDS011;49121;38.932;-9.018;2023-02-28T07:13:00;3.53;;;2.15;;
63032;SDS011;49121;38.932;-9.018;2023-02-28T07:15:01;8.57;;;3.38;;
63032;SDS011;49121;38.932;-9.018;2023-02-28T07:17:03;5.05;;;2.78;;
63032;SDS011;49121;38.932;-9.018;2023-02-28T07:19:03;5.97;;;2.58;;
63032;SDS011;49121;38.932;-9.018;2023-02-28T07:21:05;10.05;;;3.88;;
63032;SDS011;49121;38.932;-9.018;2023-02-28T07:23:08;8.02;;;3.53;;
63032;SDS011;49121;38.932;-9.018;2023-02-28T07:25:09;5.57;;;2.42;;
63032;SDS011;49121;38.932;-9.018;2023-02-28T07:27:09;10.60;;;2.72;;
63032;SDS011;49121;38.932;-9.018;2023-02-28T07:29:11;8.82;;;3.25;;
63032;SDS011;49121;38.932;-9.018;2023-02-28T07:31:12;13.13;;;5.95;;
63032;SDS011;49121;38.932;-9.018;2023-02-28T07:33:16;14.70;;;6.95;;
63032;SDS011;49121;38.932;-9.018;2023-02-28T07:35:17;23.60;;;6.57;;
63032;SDS011;49121;38.932;-9.018;2023-02-28T07:37:17;20.17;;;8.13;;
63032;SDS011;49121;38.932;-9.018;2023-02-28T07:39:18;6.78;;;3.13;;
63032;SDS011;49121;38.932;-9.018;2023-02-28T07:41:21;6.78;;;3.20;;
63032;SDS011;49121;38.932;-9.018;2023-02-28T07:43:24;4.63;;;2.70;;
63032;SDS011;49121;38.932;-9.018;2023-02-28T07:45:24;7.15;;;2.47;;
63032;SDS011;49121;38.932;-9.018;2023-02-28T07:47:25;8.40;;;2.90;;
63032;SDS011;49121;38.932;-9.018;2023-02-28T07:49:25;6.60;;;2.05;;
63032;SDS011;49121;38.932;-9.018;2023-02-28T07:51:26;6.43;;;2.45;;
63032;SDS011;49121;38.932;-9.018;2023-02-28T07:53:27;12.38;;;2.63;;
63032;SDS011;49121;38.932;-9.018;2023-02-28T07:55:28;3.67;;;1.98;;
63032;SDS011;49121;38.932;-9.018;2023-02-28T07:57:29;8.40;;;2.50;;
63032;SDS011;49121;38.932;-9.018;2023-02-28T07:59:30;5.85;;;2.60;;
63032;SDS011;49121;38.932;-9.018;2023-02-28T08:01:30;5.47;;;2.53;;
63032;SDS011;49121;38.932;-9.018;2023-02-28T08:03:32;10.88;;;3.75;;
63032;SDS011;49121;38.932;-9.018;2023-02-28T08:05:33;7.32;;;2.10;;
63032;SDS011;49121;38.932;-9.018;2023-02-28T08:07:38;3.42;;;1.65;;
63032;SDS011;49121;38.932;-9.018;2023-02-28T08:12:00;6.50;;;2.00;;
63032;SDS011;49121;38.932;-9.018;2023-02-28T08:14:00;5.25;;;2.10;;
63032;SDS011;49121;38.932;-9.018;2023-02-28T08:16:01;6.10;;;1.85;;
63032;SDS011;49121;38.932;-9.018;2023-02-28T08:18:03;4.95;;;1.88;;
63032;SDS011;49121;38.932;-9.018;2023-02-28T08:20:06;12.43;;;2.60;;
63032;SDS011;49121;38.932;-9.018;2023-02-28T08:22:07;4.25;;;2.35;;
63032;SDS011;49121;38.932;-9.018;2023-02-28T08:24:08;13.27;;;2.30;;
63032;SDS011;49121;38.932;-9.018;2023-02-28T08:26:09;3.85;;;1.77;;
63032;SDS011;49121;38.932;-9.018;2023-02-28T08:28:10;5.50;;;1.75;;
63032;SDS011;49121;38.932;-9.018;2023-02-28T08:30:11;4.15;;;1.50;;
63032;SDS011;49121;38.932;-9.018;2023-02-28T08:32:13;9.32;;;1.40;;
63032;SDS011;49121;38.932;-9.018;2023-02-28T08:34:14;3.53;;;1.63;;
63032;SDS011;49121;38.932;-9.018;2023-02-28T08:36:16;6.75;;;1.42;;
63032;SDS011;49121;38.932;-9.018;2023-02-28T08:38:17;3.08;;;1.10;;
63032;SDS011;49121;38.932;-9.018;2023-02-28T08:40:17;5.32;;;1.90;;
63032;SDS011;49121;38.932;-9.018;2023-02-28T08:42:18;4.03;;;2.60;;
63032;SDS011;49121;38.932;-9.018;2023-02-28T08:44:21;3.38;;;1.35;;
63032;SDS011;49121;38.932;-9.018;2023-02-28T08:46:22;3.83;;;1.58;;
63032;SDS011;49121;38.932;-9.018;2023-02-28T08:48:23;3.88;;;1.48;;
63032;SDS011;49121;38.932;-9.018;2023-02-28T08:50:24;3.17;;;1.35;;
63032;SDS011;49121;38.932;-9.018;2023-02-28T08:52:25;3.20;;;1.70;;
63032;SDS011;49121;38.932;-9.018;2023-02-28T08:54:26;5.05;;;1.70;;
63032;SDS011;49121;38.932;-9.018;2023-02-28T08:56:29;3.55;;;1.90;;
63032;SDS011;49121;38.932;-9.018;2023-02-28T08:58:30;3.53;;;1.98;;
63032;SDS011;49121;38.932;-9.018;2023-02-28T09:00:31;2.75;;;1.52;;
63032;SDS011;49121;38.932;-9.018;2023-02-28T09:02:32;3.63;;;1.25;;
63032;SDS011;49121;38.932;-9.018;2023-02-28T09:04:33;3.42;;;1.52;;
63032;SDS011;49121;38.932;-9.018;2023-02-28T09:06:34;3.70;;;1.65;;
63032;SDS011;49121;38.932;-9.018;2023-02-28T09:08:35;4.53;;;1.17;;
63032;SDS011;49121;38.932;-9.018;2023-02-28T09:10:37;3.85;;;1.42;;
63032;SDS011;49121;38.932;-9.018;2023-02-28T09:12:38;2.72;;;1.17;;
63032;SDS011;49121;38.932;-9.018;2023-02-28T09:14:39;2.65;;;1.20;;
63032;SDS011;49121;38.932;-9.018;2023-02-28T09:16:40;5.55;;;1.85;;
63032;SDS011;49121;38.932;-9.018;2023-02-28T09:18:40;4.43;;;1.20;;
63032;SDS011;49121;38.932;-9.018;2023-02-28T09:20:41;3.13;;;1.45;;
63032;SDS011;49121;38.932;-9.018;2023-02-28T09:22:43;6.00;;;1.33;;
63032;SDS011;49121;38.932;-9.018;2023-02-28T09:24:44;1.40;;;1.23;;
63032;SDS011;49121;38.932;-9.018;2023-02-28T09:26:46;5.45;;;1.42;;
63032;SDS011;49121;38.932;-9.018;2023-02-28T09:28:47;1.50;;;1.10;;
63032;SDS011;49121;38.932;-9.018;2023-02-28T09:30:49;3.85;;;1.25;;
63032;SDS011;49121;38.932;-9.018;2023-02-28T09:32:51;1.73;;;1.00;;
63032;SDS011;49121;38.932;-9.018;2023-02-28T09:34:54;2.67;;;1.63;;
63032;SDS011;49121;38.932;-9.018;2023-02-28T09:36:56;3.58;;;1.67;;
63032;SDS011;49121;38.932;-9.018;2023-02-28T09:38:58;7.57;;;2.47;;
63032;SDS011;49121;38.932;-9.018;2023-02-28T09:41:00;4.32;;;1.70;;
63032;SDS011;49121;38.932;-9.018;2023-02-28T09:43:05;4.93;;;1.33;;
63032;SDS011;49121;38.932;-9.018;2023-02-28T09:45:19;5.45;;;2.10;;
63032;SDS011;49121;38.932;-9.018;2023-02-28T09:47:31;2.22;;;1.10;;
63032;SDS011;49121;38.932;-9.018;2023-02-28T09:49:37;3.67;;;1.40;;
63032;SDS011;49121;38.932;-9.018;2023-02-28T09:51:53;6.43;;;1.55;;
63032;SDS011;49121;38.932;-9.018;2023-02-28T09:54:03;3.50;;;1.50;;
63032;SDS011;49121;38.932;-9.018;2023-02-28T09:58:53;2.97;;;1.05;;
63032;SDS011;49121;38.932;-9.018;2023-02-28T10:01:12;4.10;;;1.33;;
63032;SDS011;49121;38.932;-9.018;2023-02-28T10:06:04;4.05;;;1.40;;
63032;SDS011;49121;38.932;-9.018;2023-02-28T10:08:14;4.07;;;1.02;;
63032;SDS011;49121;38.932;-9.018;2023-02-28T10:10:20;1.90;;;1.00;;
63032;SDS011;49121;38.932;-9.018;2023-02-28T10:12:26;3.35;;;1.17;;
63032;SDS011;49121;38.932;-9.018;2023-02-28T10:14:30;5.40;;;1.38;;
63032;SDS011;49121;38.932;-9.018;2023-02-28T10:16:59;5.72;;;1.42;;
63032;SDS011;49121;38.932;-9.018;2023-02-28T10:19:06;5.30;;;1.50;;
63032;SDS011;49121;38.932;-9.018;2023-02-28T10:23:38;3.45;;;1.08;;
63032;SDS011;49121;38.932;-9.018;2023-02-28T10:27:41;2.97;;;1.45;;
63032;SDS011;49121;38.932;-9.018;2023-02-28T10:29:44;4.05;;;1.25;;
63032;SDS011;49121;38.932;-9.018;2023-02-28T10:31:47;3.85;;;1.30;;
63032;SDS011;49121;38.932;-9.018;2023-02-28T10:33:49;2.72;;;1.20;;
63032;SDS011;49121;38.932;-9.018;2023-02-28T10:35:55;3.50;;;1.40;;
63032;SDS011;49121;38.932;-9.018;2023-02-28T10:38:00;5.72;;;1.40;;
63032;SDS011;49121;38.932;-9.018;2023-02-28T10:40:32;2.30;;;1.25;;
63032;SDS011;49121;38.932;-9.018;2023-02-28T10:42:35;2.58;;;0.93;;
63032;SDS011;49121;38.932;-9.018;2023-02-28T10:44:39;7.18;;;1.95;;
63032;SDS011;49121;38.932;-9.018;2023-02-28T10:48:44;5.50;;;1.95;;
63032;SDS011;49121;38.932;-9.018;2023-02-28T10:50:52;5.43;;;2.65;;
63032;SDS011;49121;38.932;-9.018;2023-02-28T10:55:26;7.57;;;3.35;;
63032;SDS011;49121;38.932;-9.018;2023-02-28T10:57:30;7.75;;;3.75;;
63032;SDS011;49121;38.932;-9.018;2023-02-28T10:59:31;9.13;;;2.67;;
63032;SDS011;49121;38.932;-9.018;2023-02-28T11:01:45;2.60;;;1.42;;
63032;SDS011;49121;38.932;-9.018;2023-02-28T11:03:52;7.63;;;2.60;;
63032;SDS011;49121;38.932;-9.018;2023-02-28T11:05:53;10.48;;;4.82;;
63032;SDS011;49121;38.932;-9.018;2023-02-28T11:10:04;3.33;;;1.67;;
63032;SDS011;49121;38.932;-9.018;2023-02-28T11:12:16;7.22;;;2.45;;
63032;SDS011;49121;38.932;-9.018;2023-02-28T11:14:27;10.80;;;3.88;;
63032;SDS011;49121;38.932;-9.018;2023-02-28T11:16:31;7.07;;;3.00;;
63032;SDS011;49121;38.932;-9.018;2023-02-28T11:18:38;7.25;;;2.13;;
63032;SDS011;49121;38.932;-9.018;2023-02-28T11:20:42;8.88;;;2.70;;
63032;SDS011;49121;38.932;-9.018;2023-02-28T11:22:50;4.25;;;2.30;;
63032;SDS011;49121;38.932;-9.018;2023-02-28T11:24:52;4.07;;;2.17;;
63032;SDS011;49121;38.932;-9.018;2023-02-28T11:26:55;7.25;;;1.77;;
63032;SDS011;49121;38.932;-9.018;2023-02-28T11:31:19;6.40;;;1.70;;
63032;SDS011;49121;38.932;-9.018;2023-02-28T11:33:26;7.15;;;1.70;;
63032;SDS011;49121;38.932;-9.018;2023-02-28T11:35:31;10.20;;;2.40;;
63032;SDS011;49121;38.932;-9.018;2023-02-28T11:37:40;6.40;;;2.30;;
63032;SDS011;49121;38.932;-9.018;2023-02-28T11:39:41;5.88;;;1.55;;
63032;SDS011;49121;38.932;-9.018;2023-02-28T11:44:36;3.47;;;1.45;;
63032;SDS011;49121;38.932;-9.018;2023-02-28T11:46:44;9.48;;;2.10;;
63032;SDS011;49121;38.932;-9.018;2023-02-28T11:51:51;3.55;;;1.20;;
63032;SDS011;49121;38.932;-9.018;2023-02-28T11:54:21;7.93;;;1.88;;
63032;SDS011;49121;38.932;-9.018;2023-02-28T11:56:47;3.67;;;1.30;;
63032;SDS011;49121;38.932;-9.018;2023-02-28T12:08:23;6.53;;;2.17;;
63032;SDS011;49121;38.932;-9.018;2023-02-28T12:10:28;3.40;;;1.50;;
63032;SDS011;49121;38.932;-9.018;2023-02-28T12:14:54;5.78;;;1.63;;
63032;SDS011;49121;38.932;-9.018;2023-02-28T12:17:19;3.00;;;1.47;;
63032;SDS011;49121;38.932;-9.018;2023-02-28T12:24:59;4.90;;;2.00;;
63032;SDS011;49121;38.932;-9.018;2023-02-28T12:27:22;4.45;;;1.30;;
63032;SDS011;49121;38.932;-9.018;2023-02-28T12:29:36;5.07;;;3.15;;
63032;SDS011;49121;38.932;-9.018;2023-02-28T12:34:07;3.53;;;1.52;;
63032;SDS011;49121;38.932;-9.018;2023-02-28T12:36:14;7.38;;;2.28;;
63032;SDS011;49121;38.932;-9.018;2023-02-28T12:38:21;4.25;;;1.40;;
63032;SDS011;49121;38.932;-9.018;2023-02-28T12:40:26;9.43;;;1.55;;
63032;SDS011;49121;38.932;-9.018;2023-02-28T12:43:02;4.50;;;2.05;;
63032;SDS011;49121;38.932;-9.018;2023-02-28T12:45:19;8.55;;;2.63;;
63032;SDS011;49121;38.932;-9.018;2023-02-28T12:47:27;5.88;;;1.40;;
63032;SDS011;49121;38.932;-9.018;2023-02-28T12:51:48;1.65;;;1.00;;
63032;SDS011;49121;38.932;-9.018;2023-02-28T12:53:56;5.85;;;1.30;;
63032;SDS011;49121;38.932;-9.018;2023-02-28T12:56:09;7.78;;;2.33;;
63032;SDS011;49121;38.932;-9.018;2023-02-28T12:59:07;8.20;;;3.10;;
63032;SDS011;49121;38.932;-9.018;2023-02-28T13:01:04;8.23;;;3.33;;
63032;SDS011;49121;38.932;-9.018;2023-02-28T13:06:05;9.30;;;3.00;;
63032;SDS011;49121;38.932;-9.018;2023-02-28T13:10:16;6.95;;;1.30;;
63032;SDS011;49121;38.932;-9.018;2023-02-28T13:12:24;7.07;;;1.80;;
63032;SDS011;49121;38.932;-9.018;2023-02-28T13:14:35;12.95;;;1.80;;
63032;SDS011;49121;38.932;-9.018;2023-02-28T13:19:09;13.45;;;1.42;;
63032;SDS011;49121;38.932;-9.018;2023-02-28T13:25:58;1.85;;;1.17;;
63032;SDS011;49121;38.932;-9.018;2023-02-28T13:28:02;3.88;;;1.38;;
63032;SDS011;49121;38.932;-9.018;2023-02-28T13:32:54;2.97;;;1.20;;
63032;SDS011;49121;38.932;-9.018;2023-02-28T13:35:34;4.78;;;1.48;;
63032;SDS011;49121;38.932;-9.018;2023-02-28T13:37:37;4.30;;;1.00;;
63032;SDS011;49121;38.932;-9.018;2023-02-28T13:39:45;8.27;;;1.65;;
63032;SDS011;49121;38.932;-9.018;2023-02-28T13:41:48;5.57;;;1.55;;
63032;SDS011;49121;38.932;-9.018;2023-02-28T13:46:23;3.25;;;1.00;;
63032;SDS011;49121;38.932;-9.018;2023-02-28T13:50:32;8.40;;;1.15;;
63032;SDS011;49121;38.932;-9.018;2023-02-28T13:52:35;3.17;;;1.33;;
63032;SDS011;49121;38.932;-9.018;2023-02-28T13:54:52;3.65;;;1.30;;
63032;SDS011;49121;38.932;-9.018;2023-02-28T14:02:18;4.32;;;1.42;;
63032;SDS011;49121;38.932;-9.018;2023-02-28T14:04:58;3.28;;;1.17;;
63032;SDS011;49121;38.932;-9.018;2023-02-28T14:07:01;2.55;;;1.52;;
63032;SDS011;49121;38.932;-9.018;2023-02-28T14:09:06;4.72;;;1.58;;
63032;SDS011;49121;38.932;-9.018;2023-02-28T14:11:26;2.15;;;1.40;;
63032;SDS011;49121;38.932;-9.018;2023-02-28T14:13:42;7.07;;;1.70;;
63032;SDS011;49121;38.932;-9.018;2023-02-28T14:22:48;3.60;;;1.50;;
63032;SDS011;49121;38.932;-9.018;2023-02-28T14:25:15;5.38;;;2.17;;
63032;SDS011;49121;38.932;-9.018;2023-02-28T14:27:42;5.15;;;1.50;;
63032;SDS011;49121;38.932;-9.018;2023-02-28T14:36:58;3.90;;;1.60;;